TimeEEST,TemperatureF,Dew PointF,Humidity,Sea Level PressureIn,VisibilityMPH,Wind Direction,Wind SpeedMPH,Gust SpeedMPH,PrecipitationIn,Events,Conditions,WindDirDegrees,DateUTC
12:20 AM,32.0,28.4,87,30.21,-9999.0,SSE,3.5,-,N/A,,Clear,160,2013-03-31 21:20:00
12:50 AM,32.0,28.4,87,30.21,-9999.0,SW,2.3,-,N/A,,Clear,230,2013-03-31 21:50:00
1:20 AM,32.0,28.4,87,30.21,-9999.0,Variable,1.2,-,N/A,,Clear,0,2013-03-31 22:20:00
1:50 AM,32.0,28.4,87,30.21,-9999.0,Variable,1.2,-,N/A,,Clear,0,2013-03-31 22:50:00
2:20 AM,30.2,26.6,86,30.21,-9999.0,Variable,1.2,-,N/A,,Clear,0,2013-03-31 23:20:00
3:00 AM,30,27,84,,6,WSW,1.2,,,,,240,2013-04-01 00:00:00
3:20 AM,30.2,26.6,86,30.21,-9999.0,Calm,Calm,-,N/A,,Clear,0,2013-04-01 00:20:00
3:50 AM,28.4,26.6,93,30.21,-9999.0,WSW,4.6,-,N/A,,Clear,250,2013-04-01 00:50:00
4:20 AM,28.4,24.8,86,30.21,-9999.0,SW,4.6,-,N/A,,Clear,220,2013-04-01 01:20:00
4:50 AM,28.4,24.8,86,30.21,-9999.0,Variable,1.2,-,N/A,,Clear,0,2013-04-01 01:50:00
5:20 AM,28.4,26.6,93,30.21,-9999.0,Variable,1.2,-,N/A,,Clear,0,2013-04-01 02:20:00
5:50 AM,28.4,24.8,86,30.21,-9999.0,West,3.5,-,N/A,,Clear,270,2013-04-01 02:50:00
6:20 AM,28.4,24.8,86,30.21,-9999.0,Variable,2.3,-,N/A,,Clear,0,2013-04-01 03:20:00
6:50 AM,28.4,26.6,93,30.21,-9999.0,Calm,Calm,-,N/A,,Clear,0,2013-04-01 03:50:00
7:20 AM,33.8,28.4,81,30.21,-9999.0,Variable,2.3,-,N/A,,Clear,0,2013-04-01 04:20:00
7:50 AM,37.4,32.0,81,30.21,-9999.0,Variable,2.3,-,N/A,,Clear,0,2013-04-01 04:50:00
8:20 AM,42.8,33.8,70,30.21,-9999.0,South,3.5,-,N/A,,Clear,170,2013-04-01 05:20:00
8:50 AM,46.4,33.8,62,30.21,-9999.0,ESE,4.6,-,N/A,,Clear,110,2013-04-01 05:50:00
9:00 AM,46,33,49,,12,ESE,4.6,,,,Clear,110,2013-04-01 06:00:00
9:20 AM,48.2,32.0,54,30.21,-9999.0,ENE,15.0,-,N/A,,Clear,70,2013-04-01 06:20:00
9:50 AM,48.2,30.2,50,30.21,-9999.0,East,11.5,-,N/A,,Clear,80,2013-04-01 06:50:00
10:20 AM,50.0,32.0,50,30.18,-9999.0,East,11.5,-,N/A,,Clear,80,2013-04-01 07:20:00
10:50 AM,51.8,30.2,44,30.18,-9999.0,East,9.2,-,N/A,,Clear,80,2013-04-01 07:50:00
11:20 AM,53.6,28.4,38,30.18,-9999.0,ENE,9.2,-,N/A,,Clear,70,2013-04-01 08:20:00
11:50 AM,55.4,30.2,38,30.18,-9999.0,NE,6.9,-,N/A,,Clear,40,2013-04-01 08:50:00
12:20 PM,55.4,32.0,41,30.15,-9999.0,NE,6.9,-,N/A,,Clear,40,2013-04-01 09:20:00
12:50 PM,55.4,30.2,38,30.15,-9999.0,NE,5.8,-,N/A,,Clear,50,2013-04-01 09:50:00
1:20 PM,55.4,32.0,41,30.15,6.2,NE,6.9,-,N/A,,Mostly Cloudy,50,2013-04-01 10:20:00
1:50 PM,55.4,33.8,44,30.15,6.2,NE,8.1,-,N/A,,Mostly Cloudy,40,2013-04-01 10:50:00
2:20 PM,57.2,32.0,38,30.12,6.2,SW,5.8,-,N/A,,Mostly Cloudy,220,2013-04-01 11:20:00
2:50 PM,59.0,32.0,36,30.12,6.2,SSW,5.8,-,N/A,,Mostly Cloudy,200,2013-04-01 11:50:00
3:00 PM,58,32,25,,12,SSW,5.8,,,,Partly Cloudy,210,2013-04-01 12:00:00
3:20 PM,59.0,33.8,39,30.12,6.2,SW,9.2,-,N/A,,Mostly Cloudy,220,2013-04-01 12:20:00
3:50 PM,57.2,32.0,38,30.12,6.2,SSW,10.4,-,N/A,,Mostly Cloudy,200,2013-04-01 12:50:00
4:20 PM,57.2,33.8,41,30.12,6.2,SW,10.4,-,N/A,,Mostly Cloudy,220,2013-04-01 13:20:00
4:50 PM,57.2,32.0,38,30.09,6.2,SW,9.2,-,N/A,,Mostly Cloudy,220,2013-04-01 13:50:00
5:20 PM,57.2,33.8,41,30.09,6.2,SW,9.2,23.0,N/A,,Mostly Cloudy,220,2013-04-01 14:20:00
5:50 PM,55.4,33.8,44,30.09,6.2,SW,9.2,-,N/A,,Mostly Cloudy,220,2013-04-01 14:50:00
6:20 PM,51.8,33.8,50,30.09,6.2,SSW,4.6,-,N/A,,Mostly Cloudy,210,2013-04-01 15:20:00
6:50 PM,50.0,33.8,54,30.09,6.2,WSW,6.9,-,N/A,,Mostly Cloudy,240,2013-04-01 15:50:00
7:20 PM,50.0,33.8,54,30.09,6.2,SW,4.6,-,N/A,,Mostly Cloudy,230,2013-04-01 16:20:00
7:50 PM,48.2,33.8,58,30.09,-9999.0,SW,5.8,-,N/A,,Clear,230,2013-04-01 16:50:00
8:20 PM,46.4,33.8,62,30.09,-9999.0,SW,5.8,-,N/A,,Clear,230,2013-04-01 17:20:00
8:50 PM,44.6,33.8,66,30.09,-9999.0,West,6.9,-,N/A,,Clear,270,2013-04-01 17:50:00
9:00 PM,45,34,55,,12,West,6.9,,,,,270,2013-04-01 18:00:00
9:20 PM,41.0,33.8,76,30.09,-9999.0,WNW,4.6,-,N/A,,Clear,290,2013-04-01 18:20:00
9:50 PM,41.0,33.8,76,30.09,-9999.0,Variable,1.2,-,N/A,,Clear,0,2013-04-01 18:50:00
10:20 PM,41.0,33.8,76,30.09,-9999.0,Variable,1.2,-,N/A,,Clear,0,2013-04-01 19:20:00
10:50 PM,37.4,33.8,87,30.09,-9999.0,Variable,1.2,-,N/A,,Clear,0,2013-04-01 19:50:00
11:20 PM,39.2,33.8,81,30.09,-9999.0,WSW,4.6,-,N/A,,Clear,240,2013-04-01 20:20:00
11:50 PM,35.6,32.0,87,30.09,-9999.0,Variable,2.3,-,N/A,,Clear,0,2013-04-01 20:50:00